Upper Tygart, Kentucky
Current Conditions -  °F | °C
As of 8:10 PM on Saturday 25 Oct 2014 (Local Time) from KSYM Reporting Station
Clear Clear  
Wind Chill: 64°   Ceiling: Unl
Heat Index: 64°   Visibility: 10mi
Dew Point: 57°   Wind: 8mph
Humidity: 77%   Direction: 230°SW
Pressure: 29.98"   Gusts: NA
Location:  38.3543°N, 83.1837°W
Report Text: KSYM 260010Z AUTO 23007KT 10SM CLR 18/14 A2998 RMK AO2
Loading
Personal Weather Stations






























Interactive Weather Map
Tropical Storm Tracking
New forecast layout! Learn more

10-Day Weather Forecast

Advertisements
Track Severe Weather on mobile